Time;durP1;ratioP1;P1;durP2;ratioP2;P2;SDS_P1;SDS_P2;PMS_P1;PMS_P2;Temp;Humidity;BMP_temperature;BMP_pressure;BME280_temperature;BME280_humidity;BME280_pressure;Samples;Min_cycle;Max_cycle;Signal;HPM_P1;HPM_P2
2021/03/27 00:01:11;0.00;0.00;0.62;0.00;0.00;0.62;1.90;1.43;;;26.70;25.20;;;;;;2263039;58;20452;-66
2021/03/27 00:04:08;0.00;0.00;0.62;0.00;0.00;0.62;1.70;1.33;;;26.70;25.20;;;;;;2238936;58;20398;-64
2021/03/27 00:06:59;0.00;0.00;0.62;0.00;0.00;0.62;2.30;1.70;;;26.70;25.20;;;;;;2238209;62;20493;-66
2021/03/27 00:09:51;0.00;0.00;0.62;0.00;0.00;0.62;2.67;1.90;;;26.70;25.20;;;;;;2260400;58;20373;-65
2021/03/27 00:12:41;0.00;0.00;0.62;0.00;0.00;0.62;2.03;1.80;;;26.70;25.20;;;;;;2244623;58;20384;-64
2021/03/27 00:15:33;0.00;0.00;0.62;0.00;0.00;0.62;3.80;1.90;;;26.70;25.10;;;;;;2238500;62;20828;-65
2021/03/27 00:18:23;0.00;0.00;0.62;0.00;0.00;0.62;1.90;1.70;;;26.70;25.10;;;;;;2247200;62;20376;-65
2021/03/27 00:21:18;0.00;0.00;0.62;0.00;0.00;0.62;2.10;1.60;;;26.70;25.00;;;;;;2250292;58;20376;-65
2021/03/27 00:24:10;0.00;0.00;0.62;0.00;0.00;0.62;1.80;1.60;;;26.60;25.00;;;;;;2238498;62;20542;-66
2021/03/27 00:27:01;0.00;0.00;0.62;0.00;0.00;0.62;2.20;1.63;;;26.60;25.00;;;;;;2243591;62;20372;-65
2021/03/27 00:29:52;0.00;0.00;0.62;0.00;0.00;0.62;2.53;1.80;;;26.60;25.00;;;;;;2239902;62;20377;-65
2021/03/27 00:32:42;0.00;0.00;0.62;0.00;0.00;0.62;2.10;1.70;;;26.60;25.00;;;;;;2270278;58;20515;-65
2021/03/27 00:35:34;0.00;0.00;0.62;0.00;0.00;0.62;2.93;1.90;;;26.70;25.10;;;;;;2246740;62;20707;-65
2021/03/27 00:38:37;0.00;0.00;0.62;0.00;0.00;0.62;1.83;1.47;;;26.60;25.00;;;;;;2245339;58;20400;-66
2021/03/27 00:41:29;0.00;0.00;0.62;0.00;0.00;0.62;3.40;1.90;;;26.60;25.00;;;;;;2236849;62;20399;-65
2021/03/27 00:44:15;0.00;0.00;0.62;0.00;0.00;0.62;2.07;1.70;;;26.60;25.00;;;;;;2251485;58;20391;-65
2021/03/27 00:47:02;0.00;0.00;0.62;0.00;0.00;0.62;2.20;1.80;;;26.60;25.00;;;;;;2305210;58;20593;-67
2021/03/27 00:49:54;0.00;0.00;0.62;0.00;0.00;0.62;3.10;1.90;;;26.60;25.10;;;;;;2238039;62;20446;-65
2021/03/27 00:52:45;0.00;0.00;0.62;0.00;0.00;0.62;2.03;1.83;;;26.60;25.10;;;;;;2239092;62;20393;-65
2021/03/27 00:55:37;0.00;0.00;0.62;0.00;0.00;0.62;2.07;1.50;;;26.60;25.20;;;;;;2237520;58;20500;-65
2021/03/27 00:58:27;0.00;0.00;0.62;0.00;0.00;0.62;3.33;1.80;;;26.60;25.20;;;;;;2238067;62;20422;-65
2021/03/27 01:01:15;0.00;0.00;0.62;0.00;0.00;0.62;2.40;1.50;;;26.60;25.20;;;;;;2246830;61;20439;-66
2021/03/27 01:04:23;0.00;0.00;0.62;0.00;0.00;0.62;2.43;1.83;;;26.60;25.30;;;;;;2239241;61;20399;-65
2021/03/27 01:07:28;0.00;0.00;0.62;0.00;0.00;0.62;1.67;1.43;;;26.60;25.30;;;;;;2240521;62;20371;-65
2021/03/27 01:10:36;0.00;0.00;0.62;0.00;0.00;0.62;2.00;1.43;;;26.60;25.30;;;;;;2240522;62;20394;-65
2021/03/27 01:13:27;0.00;0.00;0.62;0.00;0.00;0.62;2.83;2.00;;;26.60;25.30;;;;;;2237563;62;20402;-65
2021/03/27 01:16:19;0.00;0.00;0.62;0.00;0.00;0.62;1.80;1.40;;;26.60;25.30;;;;;;2240015;58;20447;-65
2021/03/27 01:19:11;0.00;0.00;0.62;0.00;0.00;0.62;1.93;1.53;;;26.60;25.40;;;;;;2242044;62;20417;-65
2021/03/27 01:21:57;0.00;0.00;0.62;0.00;0.00;0.62;2.20;1.50;;;26.60;25.40;;;;;;2243544;58;20464;-64
2021/03/27 01:24:43;0.00;0.00;0.62;0.00;0.00;0.62;1.80;1.60;;;26.60;25.40;;;;;;2240185;58;20396;-65
2021/03/27 01:27:34;0.00;0.00;0.62;0.00;0.00;0.62;1.73;1.57;;;26.60;25.40;;;;;;2244257;58;20380;-65
2021/03/27 01:30:30;0.00;0.00;0.62;0.00;0.00;0.62;1.60;1.30;;;26.60;25.40;;;;;;2239044;62;20379;-64
2021/03/27 01:33:22;0.00;0.00;0.62;0.00;0.00;0.62;1.77;1.20;;;26.60;25.40;;;;;;2246657;58;20453;-64
2021/03/27 01:36:14;0.00;0.00;0.62;0.00;0.00;0.62;2.50;1.60;;;26.60;25.40;;;;;;2242404;58;20412;-65
2021/03/27 01:39:13;0.00;0.00;0.62;0.00;0.00;0.62;1.93;1.57;;;26.60;25.40;;;;;;2240381;58;20383;-66
2021/03/27 01:42:05;0.00;0.00;0.62;0.00;0.00;0.62;1.60;1.20;;;26.60;25.40;;;;;;2249655;62;20559;-65
2021/03/27 01:45:19;0.00;0.00;0.62;0.00;0.00;0.62;1.97;1.33;;;26.60;25.40;;;;;;2248408;58;20852;-63
2021/03/27 01:48:15;0.00;0.00;0.62;0.00;0.00;0.62;1.60;1.40;;;26.60;25.40;;;;;;2255251;58;20380;-65
2021/03/27 01:51:05;0.00;0.00;0.62;0.00;0.00;0.62;2.00;1.23;;;26.60;25.40;;;;;;2241135;58;20376;-64
2021/03/27 01:53:58;0.00;0.00;0.62;0.00;0.00;0.62;1.70;1.40;;;26.60;25.40;;;;;;2237013;62;20461;-64
2021/03/27 01:56:56;0.00;0.00;0.62;0.00;0.00;0.62;1.90;1.50;;;26.60;25.40;;;;;;2244964;58;20440;-64
2021/03/27 01:59:47;0.00;0.00;0.62;0.00;0.00;0.62;1.87;1.63;;;26.60;25.40;;;;;;2252996;58;20595;-64
2021/03/27 02:02:39;0.00;0.00;0.62;0.00;0.00;0.62;1.77;1.33;;;26.60;25.40;;;;;;2238373;62;20380;-63
2021/03/27 02:05:31;0.00;0.00;0.62;0.00;0.00;0.62;2.40;1.50;;;26.60;25.40;;;;;;2240632;62;20470;-66
2021/03/27 02:08:20;0.00;0.00;0.62;0.00;0.00;0.62;1.80;1.23;;;26.60;25.40;;;;;;2244053;62;20372;-64
2021/03/27 02:11:14;0.00;0.00;0.62;0.00;0.00;0.62;1.80;1.57;;;26.60;25.40;;;;;;2240976;62;20374;-64
2021/03/27 02:14:04;0.00;0.00;0.62;0.00;0.00;0.62;1.50;1.10;;;26.60;25.40;;;;;;2245201;58;20394;-63
2021/03/27 02:16:55;0.00;0.00;0.62;0.00;0.00;0.62;1.93;1.50;;;26.60;25.40;;;;;;2244743;62;20411;-63
2021/03/27 02:20:25;0.00;0.00;0.62;0.00;0.00;0.62;2.63;1.70;;;26.50;25.30;;;;;;2242355;58;20432;-62
2021/03/27 02:23:18;0.00;0.00;0.62;0.00;0.00;0.62;3.20;2.20;;;26.50;25.30;;;;;;2246387;58;20480;-64
2021/03/27 02:26:27;0.00;0.00;0.62;0.00;0.00;0.62;2.37;2.00;;;26.50;25.10;;;;;;2239263;62;20386;-62
2021/03/27 02:29:59;0.00;0.00;0.62;0.00;0.00;0.62;2.60;1.83;;;26.50;24.90;;;;;;2238635;62;20375;-62
2021/03/27 02:33:14;0.00;0.00;0.62;0.00;0.00;0.62;2.40;2.10;;;26.50;24.70;;;;;;2242487;62;20832;-64
2021/03/27 02:36:26;0.00;0.00;0.62;0.00;0.00;0.62;3.93;2.00;;;26.40;24.50;;;;;;2245517;62;20406;-62
2021/03/27 02:39:19;0.00;0.00;0.62;0.00;0.00;0.62;3.93;2.17;;;26.40;24.50;;;;;;2266333;62;20824;-63
2021/03/27 02:42:12;0.00;0.00;0.62;0.00;0.00;0.62;2.90;2.23;;;26.30;24.40;;;;;;2243170;62;20740;-63
2021/03/27 02:45:06;0.00;0.00;0.62;0.00;0.00;0.62;3.40;2.27;;;26.30;24.30;;;;;;2238857;58;20763;-62
2021/03/27 02:48:06;0.00;0.00;0.62;0.00;0.00;0.62;4.20;2.40;;;26.30;24.30;;;;;;2243693;62;20468;-62
2021/03/27 02:51:01;0.00;0.00;0.62;0.00;0.00;0.62;2.93;2.20;;;26.20;24.10;;;;;;2238726;62;20379;-62
2021/03/27 02:54:04;0.00;0.00;0.62;0.00;0.00;0.62;3.50;2.53;;;26.20;24.00;;;;;;2238653;58;20440;-64
2021/03/27 02:56:58;0.00;0.00;0.62;0.00;0.00;0.62;3.37;2.57;;;26.20;23.80;;;;;;2239924;62;20399;-63
2021/03/27 02:59:55;0.00;0.00;0.62;0.00;0.00;0.62;2.40;2.07;;;26.10;23.50;;;;;;2243069;62;20483;-63
2021/03/27 03:02:52;0.00;0.00;0.62;0.00;0.00;0.62;3.70;2.90;;;26.00;23.40;;;;;;2240380;62;20381;-62
2021/03/27 03:05:43;0.00;0.00;0.62;0.00;0.00;0.62;3.40;2.70;;;25.90;23.40;;;;;;2240265;62;20443;-64
2021/03/27 03:08:34;0.00;0.00;0.62;0.00;0.00;0.62;3.50;2.50;;;25.90;23.40;;;;;;2240400;62;20392;-63
2021/03/27 03:11:27;0.00;0.00;0.62;0.00;0.00;0.62;3.60;2.73;;;25.80;23.40;;;;;;2242227;62;20395;-63
2021/03/27 03:14:21;0.00;0.00;0.62;0.00;0.00;0.62;2.30;2.00;;;25.80;23.40;;;;;;2238550;58;20494;-64
2021/03/27 03:17:20;0.00;0.00;0.62;0.00;0.00;0.62;2.60;1.93;;;25.70;23.50;;;;;;2237648;62;20530;-64
2021/03/27 03:20:19;0.00;0.00;0.62;0.00;0.00;0.62;6.73;2.50;;;25.60;23.50;;;;;;2238034;62;20455;-64
2021/03/27 03:23:12;0.00;0.00;0.62;0.00;0.00;0.62;3.60;2.20;;;25.60;23.70;;;;;;2242108;58;20387;-63
2021/03/27 03:26:19;0.00;0.00;0.62;0.00;0.00;0.62;2.87;2.50;;;25.50;23.80;;;;;;2238348;62;20383;-64
2021/03/27 03:29:14;0.00;0.00;0.62;0.00;0.00;0.62;2.87;2.10;;;25.50;23.90;;;;;;2238316;62;20463;-64
2021/03/27 03:32:06;0.00;0.00;0.62;0.00;0.00;0.62;2.60;2.40;;;25.50;24.00;;;;;;2242493;62;20773;-61
2021/03/27 03:35:01;0.00;0.00;0.62;0.00;0.00;0.62;6.10;2.60;;;25.40;23.90;;;;;;2242664;58;20398;-64
2021/03/27 03:38:40;0.00;0.00;0.62;0.00;0.00;0.62;3.77;2.53;;;25.40;23.90;;;;;;2236485;62;20376;-63
2021/03/27 03:41:47;0.00;0.00;0.62;0.00;0.00;0.62;4.23;3.23;;;25.30;23.90;;;;;;2236378;62;20608;-63
2021/03/27 03:44:53;0.00;0.00;0.62;0.00;0.00;0.62;5.50;3.90;;;25.20;23.90;;;;;;2245130;62;20399;-63
2021/03/27 03:47:50;0.00;0.00;0.62;0.00;0.00;0.62;3.40;2.70;;;25.20;23.90;;;;;;2241411;62;20372;-63
2021/03/27 03:50:45;0.00;0.00;0.62;0.00;0.00;0.62;2.90;2.03;;;25.10;23.90;;;;;;2237919;62;20739;-63
2021/03/27 03:53:38;0.00;0.00;0.62;0.00;0.00;0.62;2.60;2.10;;;25.00;23.90;;;;;;2243163;58;20392;-63
2021/03/27 03:56:34;0.00;0.00;0.62;0.00;0.00;0.62;1.93;1.50;;;24.90;23.90;;;;;;2249902;62;20435;-63
2021/03/27 03:59:37;0.00;0.00;0.62;0.00;0.00;0.62;2.63;1.70;;;24.90;23.90;;;;;;2239518;58;20777;-64
2021/03/27 04:02:28;0.00;0.00;0.62;0.00;0.00;0.62;1.83;1.50;;;24.80;23.90;;;;;;2239190;58;20423;-63
2021/03/27 04:05:19;0.00;0.00;0.62;0.00;0.00;0.62;2.43;1.33;;;24.70;23.80;;;;;;2246447;62;20562;-62
2021/03/27 04:08:15;0.00;0.00;0.62;0.00;0.00;0.62;1.87;1.03;;;24.70;23.90;;;;;;2258637;62;20379;-62
2021/03/27 04:11:09;0.00;0.00;0.62;0.00;0.00;0.62;1.50;1.10;;;24.60;23.80;;;;;;2238378;62;20719;-62
2021/03/27 04:13:57;0.00;0.00;0.62;0.00;0.00;0.62;1.70;1.20;;;24.50;23.70;;;;;;2237396;62;20852;-63
2021/03/27 04:16:46;0.00;0.00;0.62;0.00;0.00;0.62;1.70;1.10;;;24.50;23.80;;;;;;2241393;58;20768;-63
2021/03/27 04:19:37;0.00;0.00;0.62;0.00;0.00;0.62;1.67;0.80;;;24.40;23.80;;;;;;2238816;58;20443;-61
2021/03/27 04:22:30;0.00;0.00;0.62;0.00;0.00;0.62;1.30;0.90;;;24.40;23.80;;;;;;2248239;62;20379;-63
2021/03/27 04:25:27;0.00;0.00;0.62;0.00;0.00;0.62;1.30;0.83;;;24.30;23.80;;;;;;2238409;62;20399;-62
2021/03/27 04:28:21;0.00;0.00;0.62;0.00;0.00;0.62;1.20;0.80;;;24.30;23.80;;;;;;2243065;62;20419;-62
2021/03/27 04:31:16;0.00;0.00;0.62;0.00;0.00;0.62;1.30;0.80;;;24.20;23.70;;;;;;2238486;62;20379;-64
2021/03/27 04:34:10;0.00;0.00;0.62;0.00;0.00;0.62;1.60;0.90;;;24.20;23.70;;;;;;2243009;58;20408;-61
2021/03/27 04:37:04;0.00;0.00;0.62;0.00;0.00;0.62;1.10;0.70;;;24.10;23.70;;;;;;2249801;62;20820;-63
2021/03/27 04:39:58;0.00;0.00;0.62;0.00;0.00;0.62;1.80;0.90;;;24.10;23.80;;;;;;2245503;58;20637;-63
2021/03/27 04:42:50;0.00;0.00;0.62;0.00;0.00;0.62;1.30;0.90;;;24.00;23.80;;;;;;2265460;58;20749;-63
2021/03/27 04:45:44;0.00;0.00;0.62;0.00;0.00;0.62;1.20;0.70;;;24.00;23.80;;;;;;2238473;62;20379;-63
2021/03/27 04:48:38;0.00;0.00;0.62;0.00;0.00;0.62;1.20;0.73;;;23.90;23.80;;;;;;2255837;62;20384;-63
2021/03/27 04:51:51;0.00;0.00;0.62;0.00;0.00;0.62;1.63;0.90;;;23.90;23.90;;;;;;2242275;62;20759;-63
2021/03/27 04:54:53;0.00;0.00;0.62;0.00;0.00;0.62;2.03;0.80;;;23.90;23.90;;;;;;2247696;62;20481;-63
2021/03/27 04:57:54;0.00;0.00;0.62;0.00;0.00;0.62;1.50;0.70;;;23.80;23.80;;;;;;2237739;62;20383;-63
2021/03/27 05:00:54;0.00;0.00;0.62;0.00;0.00;0.62;1.20;0.70;;;23.80;23.90;;;;;;2260008;58;20418;-62
2021/03/27 05:03:47;0.00;0.00;0.62;0.00;0.00;0.62;1.20;0.73;;;23.80;24.00;;;;;;2262942;58;20605;-62
2021/03/27 05:06:38;0.00;0.00;0.62;0.00;0.00;0.62;1.87;0.80;;;23.80;24.10;;;;;;2236523;62;20375;-62
2021/03/27 05:09:44;0.00;0.00;0.62;0.00;0.00;0.62;1.30;0.60;;;23.80;24.20;;;;;;2239356;58;20410;-62
2021/03/27 05:12:47;0.00;0.00;0.62;0.00;0.00;0.62;1.50;0.70;;;23.80;24.20;;;;;;2238028;62;20379;-62
2021/03/27 05:15:44;0.00;0.00;0.62;0.00;0.00;0.62;1.30;0.60;;;23.80;24.20;;;;;;2253615;58;20404;-62
2021/03/27 05:18:42;0.00;0.00;0.62;0.00;0.00;0.62;1.20;0.70;;;23.80;24.20;;;;;;2244579;58;20385;-63
2021/03/27 05:21:46;0.00;0.00;0.62;0.00;0.00;0.62;1.30;0.70;;;23.80;24.30;;;;;;2258305;62;20455;-63
2021/03/27 05:25:14;0.00;0.00;0.62;0.00;0.00;0.62;1.20;0.70;;;23.80;24.20;;;;;;2237330;62;20780;-64
2021/03/27 05:28:31;0.00;0.00;0.62;0.00;0.00;0.62;1.80;0.83;;;23.80;24.20;;;;;;2237206;62;20412;-62
2021/03/27 05:31:28;0.00;0.00;0.62;0.00;0.00;0.62;2.23;1.00;;;23.80;24.20;;;;;;2237864;62;20403;-63
2021/03/27 05:34:25;0.00;0.00;0.62;0.00;0.00;0.62;1.40;0.87;;;23.80;24.10;;;;;;2242346;62;20636;-62
2021/03/27 05:37:36;0.00;0.00;0.62;0.00;0.00;0.62;1.60;1.10;;;23.80;24.10;;;;;;2261769;58;20665;-63
2021/03/27 05:40:57;0.00;0.00;0.62;0.00;0.00;0.62;1.20;0.97;;;23.70;23.80;;;;;;2240708;62;20431;-64
2021/03/27 05:44:38;0.00;0.00;0.62;0.00;0.00;0.62;1.40;0.90;;;23.70;23.70;;;;;;2243530;58;20672;-63
2021/03/27 05:48:20;0.00;0.00;0.62;0.00;0.00;0.62;1.30;0.90;;;23.60;23.70;;;;;;2239472;62;20855;-63
2021/03/27 05:52:22;0.00;0.00;0.62;0.00;0.00;0.62;1.30;1.10;;;23.50;23.70;;;;;;2244358;62;20730;-63
2021/03/27 05:55:50;0.00;0.00;0.62;0.00;0.00;0.62;1.30;0.90;;;23.40;23.70;;;;;;2244623;62;20393;-63
2021/03/27 05:59:27;0.00;0.00;0.62;0.00;0.00;0.62;1.30;0.80;;;23.40;23.80;;;;;;2248222;62;20395;-63
2021/03/27 06:02:39;0.00;0.00;0.62;0.00;0.00;0.62;1.60;0.90;;;23.30;23.80;;;;;;2244433;62;20418;-62
2021/03/27 06:05:38;0.00;0.00;0.62;0.00;0.00;0.62;1.50;1.10;;;23.30;23.80;;;;;;2238826;62;20644;-63
2021/03/27 06:08:46;0.00;0.00;0.62;0.00;0.00;0.62;2.63;1.30;;;23.20;23.70;;;;;;2239129;62;20387;-63
2021/03/27 06:11:41;0.00;0.00;0.62;0.00;0.00;0.62;1.40;1.00;;;23.20;23.80;;;;;;2238471;58;20389;-64
2021/03/27 06:14:50;0.00;0.00;0.62;0.00;0.00;0.62;1.40;0.90;;;23.10;23.70;;;;;;2239333;59;20398;-62
2021/03/27 06:18:20;0.00;0.00;0.62;0.00;0.00;0.62;1.63;1.00;;;23.10;23.80;;;;;;2248272;58;20471;-63
2021/03/27 06:21:25;0.00;0.00;0.62;0.00;0.00;0.62;1.60;1.10;;;23.10;23.80;;;;;;2248583;62;20426;-62
2021/03/27 06:24:40;0.00;0.00;0.62;0.00;0.00;0.62;1.53;1.27;;;23.00;23.80;;;;;;2241206;62;20403;-62
2021/03/27 06:27:48;0.00;0.00;0.62;0.00;0.00;0.62;1.50;1.40;;;23.00;23.80;;;;;;2248037;58;20411;-62
2021/03/27 06:31:03;0.00;0.00;0.62;0.00;0.00;0.62;2.00;1.13;;;23.00;23.70;;;;;;2237870;62;20670;-63
2021/03/27 06:34:21;0.00;0.00;0.62;0.00;0.00;0.62;3.37;1.13;;;23.00;23.60;;;;;;2240414;62;20433;-61
2021/03/27 06:37:38;0.00;0.00;0.62;0.00;0.00;0.62;1.63;1.33;;;22.90;24.20;;;;;;2237903;62;20414;-63
2021/03/27 06:41:09;0.00;0.00;0.62;0.00;0.00;0.62;2.30;1.40;;;22.90;23.60;;;;;;2239815;62;20381;-62
2021/03/27 06:44:17;0.00;0.00;0.62;0.00;0.00;0.62;1.63;1.10;;;22.80;23.50;;;;;;2239797;62;20795;-63
2021/03/27 06:47:54;0.00;0.00;0.62;0.00;0.00;0.62;2.37;1.67;;;22.70;23.40;;;;;;2257421;58;20369;-64
2021/03/27 06:51:20;0.00;0.00;0.62;0.00;0.00;0.62;2.40;1.90;;;22.70;23.30;;;;;;2226806;62;20396;-64
2021/03/27 06:54:36;0.00;0.00;0.62;0.00;0.00;0.62;2.00;1.30;;;22.60;23.30;;;;;;2245282;62;20518;-63
2021/03/27 06:57:58;0.00;0.00;0.62;0.00;0.00;0.62;2.40;1.60;;;22.50;23.20;;;;;;2237246;62;20436;-64
2021/03/27 07:00:54;0.00;0.00;0.62;0.00;0.00;0.62;5.37;1.60;;;22.40;23.20;;;;;;2242687;62;20458;-63
2021/03/27 07:04:30;0.00;0.00;0.62;0.00;0.00;0.62;2.00;1.40;;;22.40;23.10;;;;;;2261415;58;20391;-64
2021/03/27 07:07:34;0.00;0.00;0.62;0.00;0.00;0.62;2.00;1.30;;;22.40;23.20;;;;;;2239325;58;20406;-64
2021/03/27 07:11:19;0.00;0.00;0.62;0.00;0.00;0.62;2.63;1.67;;;22.30;23.10;;;;;;2240114;62;20394;-64
2021/03/27 07:15:03;0.00;0.00;0.62;0.00;0.00;0.62;1.90;1.47;;;22.30;23.10;;;;;;2242964;61;20757;-64
2021/03/27 07:18:02;0.00;0.00;0.62;0.00;0.00;0.62;1.60;1.13;;;22.20;23.00;;;;;;2256139;58;20387;-64
2021/03/27 07:21:17;0.00;0.00;0.62;0.00;0.00;0.62;2.77;1.30;;;22.20;23.20;;;;;;2263077;58;20616;-64
2021/03/27 07:24:23;0.00;0.00;0.62;0.00;0.00;0.62;1.87;1.43;;;22.20;23.20;;;;;;2245105;62;20470;-63
2021/03/27 07:27:49;0.00;0.00;0.62;0.00;0.00;0.62;2.43;1.83;;;22.10;23.20;;;;;;2254287;58;20375;-63
2021/03/27 07:31:14;0.00;0.00;0.62;0.00;0.00;0.62;3.20;1.80;;;22.10;23.20;;;;;;2238563;58;20522;-61
2021/03/27 07:34:44;0.00;0.00;0.62;0.00;0.00;0.62;3.00;1.90;;;22.10;23.10;;;;;;2242396;62;20402;-61
2021/03/27 07:37:54;0.00;0.00;0.62;0.00;0.00;0.62;2.10;1.67;;;22.10;23.10;;;;;;2245476;62;20416;-63
2021/03/27 07:40:56;0.00;0.00;0.62;0.00;0.00;0.62;3.90;2.00;;;22.10;23.10;;;;;;2237953;62;20393;-64
2021/03/27 07:44:34;0.00;0.00;0.62;0.00;0.00;0.62;2.67;1.40;;;22.00;23.10;;;;;;2240174;58;20398;-64
2021/03/27 07:47:51;0.00;0.00;0.62;0.00;0.00;0.62;4.03;1.90;;;22.00;23.10;;;;;;2238159;62;20584;-63
2021/03/27 07:50:55;0.00;0.00;0.62;0.00;0.00;0.62;5.10;1.90;;;22.00;23.10;;;;;;2250143;58;20396;-62
2021/03/27 07:54:02;0.00;0.00;0.62;0.00;0.00;0.62;3.57;2.00;;;22.00;23.10;;;;;;2245381;62;20814;-63
2021/03/27 07:57:25;0.00;0.00;0.62;0.00;0.00;0.62;2.00;1.50;;;22.00;23.10;;;;;;2238363;62;20500;-63
2021/03/27 08:00:38;0.00;0.00;0.62;0.00;0.00;0.62;2.90;1.93;;;21.90;23.10;;;;;;2245686;62;20394;-62
2021/03/27 08:03:51;0.00;0.00;0.62;0.00;0.00;0.62;2.77;1.77;;;21.90;23.20;;;;;;2242289;58;20493;-63
2021/03/27 08:06:51;0.00;0.00;0.62;0.00;0.00;0.62;5.97;2.80;;;21.90;23.10;;;;;;2238490;62;20368;-63
2021/03/27 08:10:22;0.00;0.00;0.62;0.00;0.00;0.62;3.70;2.63;;;21.90;23.00;;;;;;2238537;62;20333;-62
2021/03/27 08:13:46;0.00;0.00;0.62;0.00;0.00;0.62;3.17;1.93;;;21.90;22.90;;;;;;2237172;61;20387;-64
2021/03/27 08:16:47;0.00;0.00;0.62;0.00;0.00;0.62;2.67;1.70;;;21.80;22.90;;;;;;2237682;62;20405;-62
2021/03/27 08:19:56;0.00;0.00;0.62;0.00;0.00;0.62;3.50;1.70;;;21.80;23.10;;;;;;2239740;58;20716;-62
2021/03/27 08:23:32;0.00;0.00;0.62;0.00;0.00;0.62;2.80;1.40;;;21.80;23.30;;;;;;2238288;62;20368;-62
2021/03/27 08:27:01;0.00;0.00;0.62;0.00;0.00;0.62;3.70;1.97;;;21.90;23.40;;;;;;2251005;62;20378;-60
2021/03/27 08:30:34;0.00;0.00;0.62;0.00;0.00;0.62;4.53;1.47;;;21.90;23.50;;;;;;2240042;58;20394;-61
2021/03/27 08:34:07;0.00;0.00;0.62;0.00;0.00;0.62;2.10;1.50;;;22.00;23.70;;;;;;2238966;62;20373;-61
2021/03/27 08:37:15;0.00;0.00;0.62;0.00;0.00;0.62;1.97;1.40;;;22.10;23.80;;;;;;2239142;62;20397;-61
2021/03/27 08:40:27;0.00;0.00;0.62;0.00;0.00;0.62;1.90;1.40;;;22.10;23.80;;;;;;2666583;46;20574;-61
2021/03/27 08:44:04;0.00;0.00;0.62;0.00;0.00;0.62;3.20;1.33;;;22.20;23.80;;;;;;2238436;62;20386;-61
2021/03/27 08:47:00;0.00;0.00;0.62;0.00;0.00;0.62;3.03;1.70;;;22.30;23.90;;;;;;2236664;62;20590;-63
2021/03/27 08:50:36;0.00;0.00;0.62;0.00;0.00;0.62;4.63;1.70;;;22.40;24.00;;;;;;2237863;62;20439;-62
2021/03/27 08:54:30;0.00;0.00;0.62;0.00;0.00;0.62;2.57;1.43;;;22.40;23.90;;;;;;2233456;62;20398;-63
2021/03/27 08:57:35;0.00;0.00;0.62;0.00;0.00;0.62;2.60;1.43;;;22.50;23.90;;;;;;2232989;62;20811;-62
2021/03/27 09:01:07;0.00;0.00;0.62;0.00;0.00;0.62;3.73;1.47;;;22.50;24.00;;;;;;2233895;62;20391;-63
2021/03/27 09:04:39;0.00;0.00;0.62;0.00;0.00;0.62;3.30;1.57;;;22.60;24.00;;;;;;2233547;62;20440;-61
2021/03/27 09:07:46;0.00;0.00;0.62;0.00;0.00;0.62;2.87;1.40;;;22.70;24.10;;;;;;2234166;62;20414;-61
2021/03/27 09:10:55;0.00;0.00;0.62;0.00;0.00;0.62;2.73;1.57;;;22.70;24.10;;;;;;2241226;62;20362;-62
2021/03/27 09:14:15;0.00;0.00;0.62;0.00;0.00;0.62;2.10;1.67;;;22.80;24.20;;;;;;2236578;61;20465;-61
2021/03/27 09:17:54;0.00;0.00;0.62;0.00;0.00;0.62;2.00;1.53;;;22.90;24.30;;;;;;2240488;62;20615;-61
2021/03/27 09:20:50;0.00;0.00;0.62;0.00;0.00;0.62;3.63;1.13;;;22.90;24.30;;;;;;2242019;62;20372;-60
2021/03/27 09:23:50;0.00;0.00;0.62;0.00;0.00;0.62;1.70;1.40;;;23.00;24.40;;;;;;2241790;61;20392;-61
2021/03/27 09:27:34;0.00;0.00;0.62;0.00;0.00;0.62;2.43;1.47;;;23.00;24.40;;;;;;2241272;62;20370;-61
2021/03/27 09:30:33;0.00;0.00;0.62;0.00;0.00;0.62;4.13;2.17;;;23.10;24.40;;;;;;2240711;61;20375;-60
2021/03/27 09:33:26;0.00;0.00;0.62;0.00;0.00;0.62;1.70;1.10;;;23.20;24.40;;;;;;2241091;61;20715;-65
2021/03/27 09:36:23;0.00;0.00;0.62;0.00;0.00;0.62;1.73;0.93;;;23.30;24.50;;;;;;2241683;62;20424;-64
2021/03/27 09:39:21;0.00;0.00;0.62;0.00;0.00;0.62;1.60;0.90;;;23.30;24.50;;;;;;2241506;62;20740;-64
2021/03/27 09:42:34;0.00;0.00;0.62;0.00;0.00;0.62;1.90;1.30;;;23.40;24.50;;;;;;2240176;62;20418;-61
2021/03/27 09:45:29;0.00;0.00;0.62;0.00;0.00;0.62;1.80;1.07;;;23.40;24.40;;;;;;2237790;62;20387;-61
2021/03/27 09:48:41;0.00;0.00;0.62;0.00;0.00;0.62;1.63;1.27;;;23.50;24.40;;;;;;2239759;62;20427;-59
2021/03/27 09:51:53;0.00;0.00;0.62;0.00;0.00;0.62;2.20;1.13;;;23.50;24.30;;;;;;2240218;62;20373;-60
2021/03/27 09:54:45;0.00;0.00;0.62;0.00;0.00;0.62;2.30;1.20;;;23.60;24.30;;;;;;2241343;61;20475;-60
2021/03/27 09:57:39;0.00;0.00;0.62;0.00;0.00;0.62;2.23;1.00;;;23.60;24.20;;;;;;2241669;62;20437;-61
2021/03/27 10:01:00;0.00;0.00;0.62;0.00;0.00;0.62;2.10;1.37;;;23.70;24.30;;;;;;2242037;62;20654;-62
2021/03/27 10:03:53;0.00;0.00;0.62;0.00;0.00;0.62;1.73;1.20;;;23.70;24.20;;;;;;2241264;61;20766;-61
2021/03/27 10:06:56;0.00;0.00;0.62;0.00;0.00;0.62;3.53;1.67;;;23.70;24.20;;;;;;2241714;62;20366;-62
2021/03/27 10:10:38;0.00;0.00;0.62;0.00;0.00;0.62;2.37;1.50;;;23.80;24.20;;;;;;2240856;62;20759;-63
2021/03/27 10:13:55;0.00;0.00;0.62;0.00;0.00;0.62;2.30;1.60;;;23.80;24.20;;;;;;2241177;61;20408;-61
2021/03/27 10:16:44;0.00;0.00;0.62;0.00;0.00;0.62;3.97;1.60;;;23.80;24.20;;;;;;2240931;62;20391;-61
2021/03/27 10:19:34;0.00;0.00;0.62;0.00;0.00;0.62;4.10;1.80;;;23.90;24.20;;;;;;2241697;62;20797;-62
2021/03/27 10:22:33;0.00;0.00;0.62;0.00;0.00;0.62;1.93;1.13;;;23.90;24.20;;;;;;2241686;62;20759;-61
2021/03/27 10:25:29;0.00;0.00;0.62;0.00;0.00;0.62;2.47;1.73;;;23.90;24.20;;;;;;2241351;62;20604;-60
2021/03/27 10:28:22;0.00;0.00;0.62;0.00;0.00;0.62;1.73;1.33;;;23.90;24.20;;;;;;2241557;62;20382;-62
2021/03/27 10:31:12;0.00;0.00;0.62;0.00;0.00;0.62;2.03;1.57;;;23.90;24.20;;;;;;2241983;62;20370;-62
2021/03/27 10:34:22;0.00;0.00;0.62;0.00;0.00;0.62;2.97;1.70;;;24.00;24.30;;;;;;2241948;61;20382;-62
2021/03/27 10:37:19;0.00;0.00;0.62;0.00;0.00;0.62;3.83;2.00;;;24.00;24.30;;;;;;2242137;62;20399;-60
2021/03/27 10:40:36;0.00;0.00;0.62;0.00;0.00;0.62;2.47;1.47;;;24.00;24.20;;;;;;2241848;62;20403;-61
2021/03/27 10:43:39;0.00;0.00;0.62;0.00;0.00;0.62;2.43;1.30;;;24.10;24.30;;;;;;2238766;62;20467;-61
2021/03/27 10:46:36;0.00;0.00;0.62;0.00;0.00;0.62;2.80;1.90;;;24.10;24.30;;;;;;2238115;62;20415;-61
2021/03/27 10:49:29;0.00;0.00;0.62;0.00;0.00;0.62;2.10;1.30;;;24.10;24.30;;;;;;2238555;62;20723;-60
2021/03/27 10:52:42;0.00;0.00;0.62;0.00;0.00;0.62;3.00;1.43;;;24.10;24.30;;;;;;2551872;46;20357;-63
2021/03/27 10:56:34;0.00;0.00;0.62;0.00;0.00;0.62;1.57;1.13;;;24.20;24.40;;;;;;2234209;62;20797;-60
2021/03/27 10:59:38;0.00;0.00;0.62;0.00;0.00;0.62;2.80;1.53;;;24.20;24.40;;;;;;2229567;62;20413;-65
2021/03/27 11:03:02;0.00;0.00;0.62;0.00;0.00;0.62;1.70;1.10;;;24.20;24.40;;;;;;2229569;62;20360;-62
2021/03/27 11:06:22;0.00;0.00;0.62;0.00;0.00;0.62;1.87;1.20;;;24.30;24.40;;;;;;2234282;62;20375;-64
2021/03/27 11:09:51;0.00;0.00;0.62;0.00;0.00;0.62;1.73;1.17;;;24.30;24.40;;;;;;2233692;62;20380;-61
2021/03/27 11:13:11;0.00;0.00;0.62;0.00;0.00;0.62;1.90;1.37;;;24.40;24.40;;;;;;2234148;62;20452;-63
2021/03/27 11:16:33;0.00;0.00;0.62;0.00;0.00;0.62;1.70;1.20;;;24.40;24.40;;;;;;2233463;62;20377;-61
2021/03/27 11:20:32;0.00;0.00;0.62;0.00;0.00;0.62;2.00;1.40;;;24.40;24.50;;;;;;2233463;62;20646;-59
2021/03/27 11:23:47;0.00;0.00;0.62;0.00;0.00;0.62;1.87;1.40;;;24.50;24.50;;;;;;2233749;62;20773;-62
2021/03/27 11:27:19;0.00;0.00;0.62;0.00;0.00;0.62;1.70;1.33;;;24.50;24.50;;;;;;2236707;62;20361;-60
2021/03/27 11:30:13;0.00;0.00;0.62;0.00;0.00;0.62;1.60;1.20;;;24.60;24.50;;;;;;2233936;62;20744;-61
2021/03/27 11:33:05;0.00;0.00;0.62;0.00;0.00;0.62;2.17;1.30;;;24.60;24.50;;;;;;2233523;62;20377;-61
2021/03/27 11:36:05;0.00;0.00;0.62;0.00;0.00;0.62;2.43;1.40;;;24.60;24.50;;;;;;2234140;62;20429;-61
2021/03/27 11:38:57;0.00;0.00;0.62;0.00;0.00;0.62;2.13;1.40;;;24.70;24.60;;;;;;2233639;62;20450;-61
2021/03/27 11:41:52;0.00;0.00;0.62;0.00;0.00;0.62;2.27;1.23;;;24.70;24.50;;;;;;2235074;62;20380;-62
2021/03/27 11:44:56;0.00;0.00;0.62;0.00;0.00;0.62;2.50;2.07;;;24.70;24.50;;;;;;2241648;61;20386;-62
2021/03/27 11:47:52;0.00;0.00;0.62;0.00;0.00;0.62;2.40;1.80;;;24.80;24.50;;;;;;2239028;62;20596;-61
2021/03/27 11:50:53;0.00;0.00;0.62;0.00;0.00;0.62;2.60;1.77;;;24.80;24.50;;;;;;2238025;62;20435;-61
2021/03/27 11:54:01;0.00;0.00;0.62;0.00;0.00;0.62;1.50;1.20;;;24.80;24.40;;;;;;2237417;62;20396;-62
2021/03/27 11:56:53;0.00;0.00;0.62;0.00;0.00;0.62;2.03;1.20;;;24.90;24.50;;;;;;2234088;62;20417;-61
2021/03/27 12:03:14;0.00;0.00;0.62;0.00;0.00;0.62;1.90;1.23;;;25.00;24.50;;;;;;2237944;62;20421;-60
2021/03/27 12:06:16;0.00;0.00;0.62;0.00;0.00;0.62;2.00;1.43;;;25.00;24.50;;;;;;2236689;62;20372;-61
2021/03/27 12:09:25;0.00;0.00;0.62;0.00;0.00;0.62;1.83;1.50;;;25.00;24.50;;;;;;2237786;62;20432;-61
2021/03/27 12:12:23;0.00;0.00;0.62;0.00;0.00;0.62;1.93;1.40;;;25.00;24.50;;;;;;2237263;62;20405;-60
2021/03/27 12:15:25;0.00;0.00;0.62;0.00;0.00;0.62;2.60;1.37;;;25.10;24.50;;;;;;2237708;62;20604;-61